Time;durP1;ratioP1;P1;durP2;ratioP2;P2;SDS_P1;SDS_P2;PMS_P1;PMS_P2;Temp;Humidity;BMP_temperature;BMP_pressure;BME280_temperature;BME280_humidity;BME280_pressure;Samples;Min_cycle;Max_cycle;Signal;HPM_P1;HPM_P2
2023/06/24 00:01:23;;;;;;;5.10;4.60;;;;;;;17.07;100.00;100907.94;4989046;28;20221;-63
2023/06/24 00:03:52;;;;;;;6.33;4.90;;;;;;;17.03;100.00;100909.06;4998331;28;20261;-63
2023/06/24 00:06:18;;;;;;;5.10;4.57;;;;;;;17.08;100.00;100907.84;4982315;28;20762;-62
2023/06/24 00:08:44;;;;;;;5.90;5.40;;;;;;;16.88;100.00;100916.13;5001084;28;20192;-62
2023/06/24 00:11:10;;;;;;;10.57;5.17;;;;;;;16.96;100.00;100926.06;4982942;28;20223;-62
2023/06/24 00:13:36;;;;;;;5.57;5.03;;;;;;;16.89;100.00;100923.84;5007312;28;20194;-61
2023/06/24 00:16:01;;;;;;;5.07;4.67;;;;;;;16.67;100.00;100932.25;4994913;28;20207;-63
2023/06/24 00:18:28;;;;;;;5.13;4.60;;;;;;;16.80;100.00;100932.25;5008417;28;20619;-62
2023/06/24 00:20:54;;;;;;;5.53;5.03;;;;;;;16.71;100.00;100925.09;4986468;28;20219;-62
2023/06/24 00:23:24;;;;;;;5.60;5.10;;;;;;;16.72;100.00;100932.78;5009885;28;20677;-63
2023/06/24 00:25:52;;;;;;;7.33;4.77;;;;;;;16.80;100.00;100931.44;5002039;28;20187;-62
2023/06/24 00:28:18;;;;;;;6.67;4.53;;;;;;;16.72;100.00;100930.16;5005468;28;20184;-61
2023/06/24 00:30:43;;;;;;;4.97;4.47;;;;;;;16.76;100.00;100925.59;4996655;28;20226;-61
2023/06/24 00:33:11;;;;;;;7.13;5.43;;;;;;;16.66;100.00;100927.13;4992726;28;20526;-61
2023/06/24 00:35:37;;;;;;;5.73;5.23;;;;;;;16.60;100.00;100929.22;4992123;28;20238;-61
2023/06/24 00:38:03;;;;;;;6.13;4.83;;;;;;;16.59;100.00;100921.53;4992292;28;20211;-61
2023/06/24 00:40:28;;;;;;;6.00;5.50;;;;;;;16.48;100.00;100921.41;4986036;28;20242;-61
2023/06/24 00:42:54;;;;;;;6.03;5.43;;;;;;;16.39;100.00;100928.06;5004814;28;20190;-61
2023/06/24 00:45:20;;;;;;;6.40;5.03;;;;;;;16.32;100.00;100924.19;5005883;28;20174;-61
2023/06/24 00:47:45;;;;;;;8.37;5.53;;;;;;;16.28;100.00;100920.97;5006134;28;20193;-61
2023/06/24 00:50:13;;;;;;;5.80;5.20;;;;;;;16.27;100.00;100922.75;4996849;28;20187;-61
2023/06/24 00:52:42;;;;;;;6.57;5.97;;;;;;;16.35;100.00;100924.84;5019701;28;20581;-61
2023/06/24 00:55:14;;;;;;;6.97;5.40;;;;;;;16.33;100.00;100916.31;5006360;28;20616;-62
2023/06/24 00:57:51;;;;;;;6.30;5.40;;;;;;;16.26;100.00;100921.06;5005250;28;20216;-62
2023/06/24 01:00:18;;;;;;;7.87;5.30;;;;;;;16.23;100.00;100916.06;4991501;28;20190;-62
2023/06/24 01:02:44;;;;;;;5.93;5.33;;;;;;;16.21;100.00;100919.69;5017059;28;20183;-61
2023/06/24 01:05:11;;;;;;;5.70;5.20;;;;;;;16.16;100.00;100914.81;4985508;28;20191;-62
2023/06/24 01:07:37;;;;;;;6.43;5.83;;;;;;;16.19;100.00;100916.38;4997448;28;20514;-62
2023/06/24 01:10:07;;;;;;;5.83;5.17;;;;;;;16.13;100.00;100918.44;5010901;28;20646;-61
2023/06/24 01:12:40;;;;;;;6.03;5.43;;;;;;;16.07;100.00;100925.78;5016140;28;20620;-61
2023/06/24 01:15:07;;;;;;;5.83;5.27;;;;;;;16.03;100.00;100927.75;4986813;28;20260;-60
2023/06/24 01:17:44;;;;;;;5.70;5.20;;;;;;;15.93;100.00;100929.28;5010770;28;20645;-61
2023/06/24 01:21:03;;;;;;;5.93;5.43;;;;;;;15.78;100.00;100921.50;5002677;28;20182;-61
2023/06/24 01:24:01;;;;;;;6.10;5.60;;;;;;;15.82;100.00;100929.97;4980062;28;20268;-61
2023/06/24 01:26:49;;;;;;;6.00;5.53;;;;;;;15.75;100.00;100936.44;4967602;28;20235;-61
2023/06/24 01:29:35;;;;;;;6.30;5.70;;;;;;;15.71;100.00;100935.78;4974123;28;20187;-61
2023/06/24 01:32:21;;;;;;;8.53;5.83;;;;;;;15.68;100.00;100941.19;4951285;28;20566;-62
2023/06/24 01:34:55;;;;;;;6.73;5.43;;;;;;;15.74;100.00;100934.75;4963923;28;20282;-60
2023/06/24 01:38:03;;;;;;;6.27;5.77;;;;;;;15.65;100.00;100934.44;4974066;28;20341;-61
2023/06/24 01:40:34;;;;;;;5.97;5.47;;;;;;;15.73;100.00;100933.13;4960905;28;20228;-60
2023/06/24 01:43:01;;;;;;;7.53;6.83;;;;;;;15.74;100.00;100929.56;4955031;28;20197;-60
2023/06/24 01:45:28;;;;;;;8.57;6.40;;;;;;;15.67;100.00;100938.69;4971293;28;20282;-59
2023/06/24 01:48:01;;;;;;;6.50;5.90;;;;;;;15.79;100.00;100946.53;4973949;28;20200;-62
2023/06/24 01:50:29;;;;;;;6.70;6.03;;;;;;;15.78;100.00;100944.03;4963649;28;20231;-60
2023/06/24 01:52:56;;;;;;;9.03;5.80;;;;;;;15.78;100.00;100941.44;4974028;28;20318;-60
2023/06/24 01:55:24;;;;;;;6.93;5.73;;;;;;;15.72;100.00;100945.22;5011947;28;20257;-61
2023/06/24 01:57:51;;;;;;;6.63;6.00;;;;;;;15.73;100.00;100946.09;5013977;28;20229;-61
2023/06/24 02:00:17;;;;;;;8.27;6.47;;;;;;;15.76;100.00;100944.09;5004369;28;20249;-61
2023/06/24 02:02:44;;;;;;;6.70;6.10;;;;;;;15.72;100.00;100942.63;5026062;28;20189;-60
2023/06/24 02:05:11;;;;;;;7.03;6.33;;;;;;;15.68;100.00;100940.31;5006544;28;20210;-60
2023/06/24 02:07:38;;;;;;;6.40;5.70;;;;;;;15.63;100.00;100946.66;4995363;28;20283;-60
2023/06/24 02:10:05;;;;;;;6.87;6.17;;;;;;;15.62;100.00;100950.16;5004262;28;20178;-61
2023/06/24 02:12:31;;;;;;;7.30;6.37;;;;;;;15.61;100.00;100950.25;5029494;28;20610;-60
2023/06/24 02:14:58;;;;;;;6.40;5.80;;;;;;;15.63;100.00;100951.00;5013518;28;20170;-60
2023/06/24 02:17:25;;;;;;;5.97;5.47;;;;;;;15.56;100.00;100947.94;5014119;28;20199;-60
2023/06/24 02:19:53;;;;;;;6.37;5.87;;;;;;;15.42;100.00;100941.03;5001491;28;20171;-61
2023/06/24 02:22:21;;;;;;;6.63;6.03;;;;;;;15.47;100.00;100941.56;5003352;28;20233;-61
2023/06/24 02:24:48;;;;;;;7.93;6.40;;;;;;;15.49;100.00;100946.66;5013806;28;20262;-61
2023/06/24 02:27:14;;;;;;;7.17;6.47;;;;;;;15.47;100.00;100945.94;5013820;28;20223;-61
2023/06/24 02:29:40;;;;;;;6.87;6.17;;;;;;;15.37;100.00;100942.22;5014275;28;20674;-61
2023/06/24 02:32:06;;;;;;;6.83;6.23;;;;;;;15.32;100.00;100945.13;5019796;28;20279;-61
2023/06/24 02:34:32;;;;;;;6.57;5.87;;;;;;;15.30;100.00;100944.38;5013699;28;20883;-61
2023/06/24 02:36:57;;;;;;;6.70;6.10;;;;;;;15.32;100.00;100943.34;4999889;28;20199;-61
2023/06/24 02:39:22;;;;;;;6.50;6.00;;;;;;;15.30;100.00;100937.41;4994747;28;20321;-61
2023/06/24 02:41:49;;;;;;;6.77;6.10;;;;;;;15.32;100.00;100937.34;4997773;28;20234;-61
2023/06/24 02:44:15;;;;;;;7.03;6.33;;;;;;;15.29;100.00;100946.16;4995797;28;20262;-61
2023/06/24 02:46:42;;;;;;;6.93;6.27;;;;;;;15.24;100.00;100947.34;4994703;28;20183;-61
2023/06/24 02:49:09;;;;;;;9.27;6.47;;;;;;;15.21;100.00;100942.31;4994609;28;20215;-60
2023/06/24 02:51:35;;;;;;;6.83;5.97;;;;;;;15.18;100.00;100940.75;4996339;28;20235;-61
2023/06/24 02:54:01;;;;;;;7.03;6.40;;;;;;;15.15;100.00;100944.38;4993298;28;20194;-62
2023/06/24 02:56:27;;;;;;;7.47;6.63;;;;;;;15.13;100.00;100940.22;4993891;28;20207;-61
2023/06/24 02:58:54;;;;;;;7.50;6.80;;;;;;;15.10;100.00;100946.41;4994743;28;20238;-61
2023/06/24 03:01:24;;;;;;;6.90;6.40;;;;;;;15.08;100.00;100942.25;4974167;28;20242;-62
2023/06/24 03:03:55;;;;;;;7.27;6.67;;;;;;;15.15;100.00;100943.53;4994219;28;20551;-60
2023/06/24 03:06:21;;;;;;;7.07;6.50;;;;;;;15.14;100.00;100942.72;4993570;28;20353;-61
2023/06/24 03:08:48;;;;;;;7.17;6.47;;;;;;;15.14;100.00;100941.88;5002771;28;20325;-61
2023/06/24 03:11:14;;;;;;;7.47;6.50;;;;;;;15.14;100.00;100947.06;5011806;28;20230;-62
2023/06/24 03:13:39;;;;;;;8.50;6.67;;;;;;;15.09;100.00;100943.91;5019285;28;20198;-61
2023/06/24 03:16:04;;;;;;;8.10;7.30;;;;;;;15.06;100.00;100941.50;5009788;28;20255;-61
2023/06/24 03:18:30;;;;;;;8.50;6.90;;;;;;;15.06;100.00;100941.50;5020095;28;20186;-61
2023/06/24 03:20:55;;;;;;;8.00;7.40;;;;;;;15.08;100.00;100943.09;5008189;28;20222;-61
2023/06/24 03:23:20;;;;;;;6.90;6.40;;;;;;;15.08;100.00;100945.69;5020929;28;20634;-61
2023/06/24 03:25:45;;;;;;;7.13;6.53;;;;;;;15.07;100.00;100949.19;5010480;28;20194;-61
2023/06/24 03:28:11;;;;;;;7.00;6.27;;;;;;;15.06;100.00;100950.13;5012195;28;20182;-60
2023/06/24 03:30:36;;;;;;;7.30;6.57;;;;;;;15.07;100.00;100954.38;4985751;28;20309;-60
2023/06/24 03:33:01;;;;;;;6.90;6.30;;;;;;;15.13;100.00;100953.16;5016321;28;20190;-61
2023/06/24 03:35:27;;;;;;;6.47;5.87;;;;;;;15.15;100.00;100953.91;5004042;28;20233;-61
2023/06/24 03:37:52;;;;;;;6.63;5.93;;;;;;;15.13;100.00;100961.78;4991930;28;20175;-61
2023/06/24 03:40:18;;;;;;;6.77;6.13;;;;;;;15.14;100.00;100953.09;5002604;28;20187;-62
2023/06/24 03:42:43;;;;;;;6.23;5.67;;;;;;;15.17;100.00;100959.84;5025394;28;20513;-62
2023/06/24 03:45:08;;;;;;;6.13;5.60;;;;;;;15.20;100.00;100959.66;5010538;28;20244;-62
2023/06/24 03:47:34;;;;;;;6.47;5.87;;;;;;;15.18;100.00;100966.66;5011884;28;20175;-60
2023/06/24 03:49:59;;;;;;;6.80;5.77;;;;;;;15.28;100.00;100959.19;5010360;28;20193;-61
2023/06/24 03:52:25;;;;;;;6.43;5.90;;;;;;;15.36;100.00;100961.31;5017582;28;20257;-62
2023/06/24 03:54:50;;;;;;;6.07;5.43;;;;;;;15.44;100.00;100957.34;5011533;28;20191;-62
2023/06/24 03:57:16;;;;;;;6.20;5.60;;;;;;;15.52;100.00;100958.59;5012471;28;20272;-62
2023/06/24 03:59:41;;;;;;;5.90;5.10;;;;;;;15.55;100.00;100967.03;5012244;28;20585;-62
2023/06/24 04:02:09;;;;;;;6.77;6.03;;;;;;;15.61;100.00;100963.22;5017680;28;20234;-62
2023/06/24 04:04:35;;;;;;;6.73;6.23;;;;;;;15.68;100.00;100974.03;5009486;28;20259;-62
2023/06/24 04:07:01;;;;;;;6.67;6.13;;;;;;;15.77;100.00;100973.50;5012131;28;20179;-61
2023/06/24 04:09:26;;;;;;;6.90;6.30;;;;;;;15.82;100.00;100969.69;5012485;28;20186;-61
2023/06/24 04:11:51;;;;;;;7.37;6.67;;;;;;;15.85;100.00;100976.47;5015306;28;20233;-62
2023/06/24 04:14:17;;;;;;;8.20;6.20;;;;;;;15.90;100.00;100970.97;5012581;28;20193;-62
2023/06/24 04:16:42;;;;;;;8.63;6.53;;;;;;;15.88;100.00;100968.47;5001088;28;20647;-62
2023/06/24 04:19:07;;;;;;;6.33;5.73;;;;;;;15.99;100.00;100970.41;4992943;28;20207;-62
2023/06/24 04:21:33;;;;;;;5.93;5.37;;;;;;;16.02;100.00;100972.78;4992762;28;20218;-62
2023/06/24 04:23:58;;;;;;;6.67;6.00;;;;;;;16.04;100.00;100968.34;4994973;28;20246;-62
2023/06/24 04:26:23;;;;;;;6.80;6.20;;;;;;;16.17;100.00;100973.56;4992163;28;20233;-62
2023/06/24 04:28:48;;;;;;;7.33;6.23;;;;;;;16.28;100.00;100978.91;4992567;28;20187;-61
2023/06/24 04:31:14;;;;;;;7.37;6.20;;;;;;;16.39;100.00;100974.78;4991913;28;20237;-61
2023/06/24 04:33:39;;;;;;;6.13;5.63;;;;;;;16.51;100.00;100976.59;5000144;28;20202;-61
2023/06/24 04:36:04;;;;;;;7.03;5.63;;;;;;;16.52;100.00;100974.81;4993683;28;20633;-61
2023/06/24 04:38:29;;;;;;;6.73;6.13;;;;;;;16.52;100.00;100975.66;4994349;28;20186;-61
2023/06/24 04:40:55;;;;;;;6.40;5.80;;;;;;;16.68;100.00;100974.63;4990683;28;20226;-61
2023/06/24 04:43:20;;;;;;;6.30;5.70;;;;;;;16.83;100.00;100980.56;5000815;28;20190;-61
2023/06/24 04:45:45;;;;;;;7.17;6.57;;;;;;;16.89;100.00;100980.16;4992173;28;20179;-61
2023/06/24 04:48:11;;;;;;;7.53;6.73;;;;;;;17.06;100.00;100982.47;4992260;28;20623;-63
2023/06/24 04:50:36;;;;;;;7.17;6.47;;;;;;;17.16;100.00;100974.06;4987063;28;20233;-64
2023/06/24 04:53:04;;;;;;;6.87;6.17;;;;;;;17.14;100.00;100976.78;5008913;28;20229;-73
2023/06/24 04:55:32;;;;;;;7.17;6.53;;;;;;;17.37;100.00;100982.16;4995406;28;20350;-74
2023/06/24 04:57:57;;;;;;;7.43;6.77;;;;;;;17.70;100.00;100981.56;4999700;28;20282;-74
2023/06/24 05:00:24;;;;;;;10.27;7.63;;;;;;;17.63;100.00;100979.50;4988568;28;20725;-75
2023/06/24 05:02:49;;;;;;;7.83;7.00;;;;;;;17.71;100.00;100984.97;5005710;28;20186;-75
2023/06/24 05:05:14;;;;;;;7.37;6.60;;;;;;;17.91;100.00;100994.81;5003830;28;20270;-75
2023/06/24 05:07:40;;;;;;;7.40;6.70;;;;;;;17.82;100.00;100997.25;4991122;28;20271;-75
2023/06/24 05:10:05;;;;;;;7.20;6.53;;;;;;;18.14;100.00;101000.16;4986525;28;20696;-74
2023/06/24 05:12:31;;;;;;;8.03;7.23;;;;;;;18.25;100.00;101001.19;5010323;28;20183;-74
2023/06/24 05:14:56;;;;;;;7.60;7.00;;;;;;;18.25;100.00;101001.19;4996673;28;21004;-73
2023/06/24 05:17:21;;;;;;;7.07;6.40;;;;;;;18.35;100.00;100999.56;4999251;28;20183;-75
2023/06/24 05:19:47;;;;;;;7.90;6.40;;;;;;;18.43;100.00;100996.38;4991243;28;20542;-75
2023/06/24 05:22:12;;;;;;;8.90;6.97;;;;;;;18.78;100.00;101001.59;4997512;28;20238;-76
2023/06/24 05:24:37;;;;;;;7.37;6.20;;;;;;;18.88;100.00;100996.53;4991510;28;20179;-75
2023/06/24 05:27:06;;;;;;;7.17;6.47;;;;;;;19.06;100.00;101003.91;4990834;28;20233;-75
2023/06/24 05:29:34;;;;;;;8.80;6.80;;;;;;;19.28;100.00;101003.09;4990544;28;20210;-76
2023/06/24 05:32:01;;;;;;;8.97;7.07;;;;;;;19.12;100.00;101011.28;4997034;28;20241;-75
2023/06/24 05:34:27;;;;;;;7.23;6.63;;;;;;;19.32;100.00;101009.75;5010829;28;20183;-75
2023/06/24 05:36:52;;;;;;;7.17;6.57;;;;;;;19.49;100.00;101008.44;5007554;28;20696;-76
2023/06/24 05:39:17;;;;;;;8.43;7.60;;;;;;;19.59;100.00;101019.00;4998173;28;20199;-74
2023/06/24 05:41:43;;;;;;;7.10;6.40;;;;;;;19.75;100.00;101018.63;5001508;28;20721;-75
2023/06/24 05:44:12;;;;;;;7.30;6.60;;;;;;;19.75;100.00;101011.59;4993743;28;20183;-68
2023/06/24 05:46:37;;;;;;;9.50;6.57;;;;;;;20.52;100.00;101022.91;4992275;28;20261;-69
2023/06/24 05:49:02;;;;;;;7.37;6.60;;;;;;;21.09;100.00;101015.59;4992033;28;20701;-76
2023/06/24 05:51:28;;;;;;;8.00;7.20;;;;;;;21.40;100.00;101015.59;4992966;28;20369;-66
2023/06/24 05:53:53;;;;;;;7.80;6.83;;;;;;;21.53;100.00;101011.91;4990508;28;20224;-67
2023/06/24 05:56:20;;;;;;;7.13;6.43;;;;;;;21.92;100.00;101012.03;4989830;28;20552;-67
2023/06/24 05:58:45;;;;;;;7.97;7.17;;;;;;;22.24;100.00;101014.41;4978466;28;20266;-66
2023/06/24 06:01:11;;;;;;;7.47;6.87;;;;;;;22.68;98.32;101010.53;4990229;28;20373;-66
2023/06/24 06:03:37;;;;;;;10.93;7.30;;;;;;;23.09;95.25;101008.50;5009548;28;20301;-67
2023/06/24 06:06:03;;;;;;;8.00;7.23;;;;;;;23.20;94.22;101012.78;4996616;28;20653;-66
2023/06/24 06:08:28;;;;;;;7.67;6.87;;;;;;;23.95;90.43;101015.31;4991922;28;20258;-67
2023/06/24 06:10:53;;;;;;;6.60;6.00;;;;;;;25.02;82.92;101011.84;4988153;28;20668;-67
2023/06/24 06:13:18;;;;;;;8.23;6.73;;;;;;;25.24;80.93;101013.09;5000996;28;20246;-67
2023/06/24 06:15:44;;;;;;;6.90;6.30;;;;;;;26.83;73.20;101019.28;4994747;28;20218;-67
2023/06/24 06:18:09;;;;;;;6.15;5.32;;;;;;;27.45;66.21;101018.63;4995480;28;20195;-67
2023/06/24 06:20:34;;;;;;;6.43;5.82;;;;;;;27.92;59.18;101019.50;4989215;28;20226;-67
2023/06/24 06:22:59;;;;;;;6.00;5.50;;;;;;;27.44;64.30;101021.41;5006926;28;20183;-67
2023/06/24 06:25:25;;;;;;;6.80;5.70;;;;;;;28.69;57.03;101024.88;4994922;28;20636;-68
2023/06/24 06:27:50;;;;;;;6.53;5.90;;;;;;;28.74;54.97;101028.63;4995459;28;20233;-67
2023/06/24 06:30:15;;;;;;;6.03;5.43;;;;;;;29.74;50.85;101021.13;4986509;28;20210;-67
2023/06/24 06:32:41;;;;;;;9.80;5.75;;;;;;;30.05;47.47;101025.31;5007763;28;20274;-67
2023/06/24 06:35:07;;;;;;;6.38;5.88;;;;;;;30.91;45.04;101031.47;4994305;28;20183;-68
2023/06/24 06:37:32;;;;;;;6.15;5.55;;;;;;;31.81;42.67;101031.44;4993360;28;20196;-68
2023/06/24 06:39:57;;;;;;;7.22;6.55;;;;;;;30.67;46.43;101032.78;4994442;28;20195;-67
2023/06/24 06:42:23;;;;;;;7.65;5.85;;;;;;;30.55;47.42;101028.00;4999954;28;20310;-66
2023/06/24 06:44:48;;;;;;;7.45;5.93;;;;;;;31.30;45.15;101027.41;4992980;28;20175;-66
2023/06/24 06:47:13;;;;;;;9.27;6.63;;;;;;;31.42;43.54;101024.16;4993529;28;20210;-67
2023/06/24 06:49:38;;;;;;;8.40;6.25;;;;;;;31.07;45.53;101030.38;4994389;28;20666;-67
2023/06/24 06:52:04;;;;;;;8.00;7.03;;;;;;;31.36;43.69;101025.81;4999656;28;20230;-67
2023/06/24 06:54:30;;;;;;;7.30;6.70;;;;;;;30.24;47.45;101031.81;4993906;28;20300;-67
2023/06/24 06:57:00;;;;;;;7.20;6.60;;;;;;;31.95;42.08;101036.78;4994089;28;20635;-68
2023/06/24 06:59:25;;;;;;;6.15;5.65;;;;;;;32.27;41.21;101034.38;4994285;28;20209;-67
2023/06/24 07:01:50;;;;;;;6.80;6.15;;;;;;;31.67;42.72;101030.63;4966528;28;20228;-66
2023/06/24 07:04:16;;;;;;;6.90;6.30;;;;;;;31.54;40.68;101023.41;4992471;28;20627;-67
2023/06/24 07:06:41;;;;;;;7.20;6.50;;;;;;;31.78;41.44;101025.72;4998972;28;20593;-67
2023/06/24 07:09:07;;;;;;;6.53;5.90;;;;;;;31.49;43.06;101020.50;5008664;28;20183;-66
2023/06/24 07:11:32;;;;;;;6.93;6.30;;;;;;;31.28;42.30;101032.09;5014235;28;20676;-67
2023/06/24 07:13:58;;;;;;;7.15;6.45;;;;;;;29.95;48.02;101033.59;5017076;28;20229;-68
2023/06/24 07:16:23;;;;;;;6.68;6.13;;;;;;;31.51;42.02;101028.31;5011980;28;20226;-68
2023/06/24 07:18:48;;;;;;;8.25;7.55;;;;;;;32.46;38.61;101032.72;5007146;28;20535;-68
2023/06/24 07:21:13;;;;;;;6.63;6.07;;;;;;;32.40;39.39;101028.22;5003236;28;20246;-68
2023/06/24 07:23:39;;;;;;;7.95;7.13;;;;;;;30.38;43.94;101023.97;5018993;28;20233;-67
2023/06/24 07:26:04;;;;;;;7.28;6.57;;;;;;;31.80;43.36;101019.16;5010482;28;20234;-66
2023/06/24 07:28:29;;;;;;;6.93;6.32;;;;;;;33.39;39.44;101030.88;5005004;28;20556;-68
2023/06/24 07:30:54;;;;;;;7.03;6.47;;;;;;;35.79;32.87;101034.13;4985754;28;20230;-68
2023/06/24 07:33:20;;;;;;;8.18;6.50;;;;;;;35.66;31.68;101032.44;5021495;28;20194;-68
2023/06/24 07:35:45;;;;;;;6.88;6.22;;;;;;;36.01;31.63;101031.72;4998771;28;20271;-68
2023/06/24 07:38:10;;;;;;;9.27;6.28;;;;;;;35.04;32.98;101033.44;5008242;28;20178;-67
2023/06/24 07:40:35;;;;;;;7.07;5.70;;;;;;;35.45;32.41;101023.06;4987524;28;20221;-68
2023/06/24 07:43:01;;;;;;;7.68;6.25;;;;;;;34.70;33.82;101030.31;5023372;28;20186;-68
2023/06/24 07:45:26;;;;;;;9.30;6.57;;;;;;;32.80;36.00;101030.88;5011102;28;20214;-67
2023/06/24 07:47:51;;;;;;;6.40;5.80;;;;;;;33.93;34.98;101016.19;5012571;28;21071;-68
2023/06/24 07:50:16;;;;;;;7.30;6.45;;;;;;;32.95;35.98;101026.09;4990687;28;20289;-69
2023/06/24 07:52:42;;;;;;;5.70;5.20;;;;;;;33.69;35.96;101027.63;5004236;28;20194;-68
2023/06/24 07:55:07;;;;;;;10.65;5.90;;;;;;;34.20;33.51;101026.66;5007263;28;20266;-67
2023/06/24 07:57:32;;;;;;;7.45;6.03;;;;;;;30.79;39.20;101022.41;5012014;28;20183;-67
2023/06/24 07:59:58;;;;;;;7.30;5.55;;;;;;;32.27;38.79;101019.22;4997558;28;20258;-69
2023/06/24 08:02:24;;;;;;;5.88;5.20;;;;;;;32.41;38.03;101019.22;5013512;28;20223;-69
2023/06/24 08:04:49;;;;;;;7.57;5.93;;;;;;;33.62;34.57;101020.47;4998427;28;20179;-70
2023/06/24 08:07:15;;;;;;;8.50;6.10;;;;;;;33.76;35.09;101031.06;4998416;28;20194;-75
2023/06/24 08:09:40;;;;;;;7.90;4.78;;;;;;;35.46;33.12;101025.50;4998908;28;20183;-73
2023/06/24 08:12:06;;;;;;;10.13;5.57;;;;;;;33.86;33.36;101020.75;4999627;28;20269;-71
2023/06/24 08:14:31;;;;;;;9.32;5.40;;;;;;;33.04;35.49;101023.22;5002122;28;20182;-70
2023/06/24 08:16:56;;;;;;;6.22;5.65;;;;;;;34.68;33.12;101019.03;5010453;28;20199;-71
2023/06/24 08:19:22;;;;;;;7.13;4.95;;;;;;;36.13;30.96;101024.50;5002210;28;20577;-72
2023/06/24 08:21:47;;;;;;;5.93;5.32;;;;;;;36.71;29.33;101023.94;5013908;28;20237;-71
2023/06/24 08:24:12;;;;;;;6.95;5.70;;;;;;;33.85;34.00;101018.31;5012597;28;20500;-72
2023/06/24 08:26:37;;;;;;;7.47;6.03;;;;;;;34.78;32.78;101013.97;5008426;28;20210;-72
2023/06/24 08:35:09;;;;;;;8.35;4.97;;;;;;;36.75;28.92;101019.72;5011055;28;20186;-70
2023/06/24 08:37:36;;;;;;;5.63;5.13;;;;;;;37.23;28.96;101017.72;5003320;28;20592;-69
2023/06/24 08:40:01;;;;;;;4.38;3.97;;;;;;;38.48;26.10;101021.38;5006172;28;20199;-68
2023/06/24 08:42:26;;;;;;;6.75;3.35;;;;;;;38.30;26.21;101023.28;4996538;28;20297;-68
2023/06/24 08:44:52;;;;;;;4.93;3.53;;;;;;;38.71;24.22;101026.50;5004136;28;20198;-69
2023/06/24 08:50:46;;;;;;;4.10;3.70;;;;;;;38.90;24.99;101020.81;4984931;28;20748;-69
2023/06/24 08:53:13;;;;;;;3.88;3.47;;;;;;;39.14;23.30;101010.63;5005733;28;20178;-69
2023/06/24 08:55:45;;;;;;;3.65;2.80;;;;;;;36.94;25.71;101018.53;4997203;28;20195;-69
2023/06/24 08:58:10;;;;;;;6.35;3.78;;;;;;;38.07;24.86;101013.50;5004686;28;20190;-70
2023/06/24 09:00:36;;;;;;;4.22;3.83;;;;;;;38.82;23.18;101022.09;4992857;28;20253;-69
2023/06/24 09:03:01;;;;;;;5.70;3.67;;;;;;;35.02;26.86;101020.31;5009495;28;20199;-69
2023/06/24 09:05:26;;;;;;;4.57;3.50;;;;;;;35.25;26.76;101020.66;4996239;28;20210;-70
2023/06/24 09:07:52;;;;;;;5.68;4.28;;;;;;;35.57;26.25;101015.09;5009520;28;20182;-67
2023/06/24 09:10:34;;;;;;;4.57;3.78;;;;;;;36.09;25.91;101014.50;5003285;28;20182;-69
2023/06/24 09:13:05;;;;;;;4.53;3.58;;;;;;;35.07;27.42;101003.59;5004547;28;20183;-68
2023/06/24 09:15:34;;;;;;;3.60;3.30;;;;;;;35.42;27.41;101002.94;4996447;28;20206;-69
2023/06/24 09:18:00;;;;;;;5.10;4.00;;;;;;;36.44;25.52;101000.31;5000884;28;20277;-70
2023/06/24 09:20:27;;;;;;;6.38;3.65;;;;;;;38.07;24.75;100998.22;4994788;28;20368;-68
2023/06/24 09:22:57;;;;;;;4.28;3.70;;;;;;;37.56;24.83;100994.72;5020766;28;20194;-67
2023/06/24 09:25:23;;;;;;;5.80;4.78;;;;;;;35.94;27.50;100985.53;5005608;28;20187;-68
2023/06/24 09:27:55;;;;;;;7.43;4.47;;;;;;;37.27;26.70;100984.00;5006780;28;20349;-67
2023/06/24 09:30:22;;;;;;;4.22;3.83;;;;;;;36.32;26.73;100987.72;5002488;28;20210;-70
2023/06/24 09:32:52;;;;;;;6.85;4.32;;;;;;;35.58;27.43;100979.28;5024246;28;20190;-70
2023/06/24 09:35:25;;;;;;;4.55;4.07;;;;;;;37.08;25.88;100976.16;5009112;28;20190;-67
2023/06/24 09:37:59;;;;;;;6.78;4.13;;;;;;;35.64;26.23;100971.13;4991995;28;20314;-68
2023/06/24 09:40:24;;;;;;;5.40;4.88;;;;;;;34.82;27.78;100967.06;4985298;28;20682;-69
2023/06/24 09:42:56;;;;;;;6.22;3.83;;;;;;;36.28;28.05;100975.84;4996741;28;20180;-70
2023/06/24 09:45:27;;;;;;;4.65;4.25;;;;;;;35.69;26.37;100968.56;4991389;28;20180;-71
2023/06/24 09:47:54;;;;;;;4.88;4.47;;;;;;;37.68;24.23;100965.13;4995381;28;20187;-75
2023/06/24 09:50:20;;;;;;;6.68;4.10;;;;;;;38.85;23.58;100970.53;4982371;28;20195;-75
2023/06/24 09:52:46;;;;;;;5.47;4.97;;;;;;;36.76;25.15;100963.19;4992932;28;20195;-72
2023/06/24 09:55:16;;;;;;;4.32;3.72;;;;;;;37.53;24.97;100949.59;5002506;28;20187;-76
2023/06/24 09:57:46;;;;;;;5.45;3.75;;;;;;;38.59;22.88;100951.38;4997651;28;20183;-74
2023/06/24 10:00:15;;;;;;;5.13;3.60;;;;;;;39.67;24.23;100959.72;4998702;28;20605;-76
2023/06/24 10:02:40;;;;;;;6.68;4.00;;;;;;;37.86;24.89;100943.41;5008263;28;20186;-74
2023/06/24 10:05:06;;;;;;;4.75;3.15;;;;;;;36.43;25.28;100951.28;5003998;28;20188;-73
2023/06/24 10:07:32;;;;;;;3.83;2.80;;;;;;;37.87;24.25;100938.84;4996223;28;20194;-73
2023/06/24 10:09:58;;;;;;;4.78;2.90;;;;;;;38.78;22.56;100951.06;4998920;28;20275;-73
2023/06/24 10:12:26;;;;;;;7.60;3.75;;;;;;;36.71;23.50;100946.22;4984080;28;20370;-72
2023/06/24 10:14:52;;;;;;;4.10;3.70;;;;;;;34.86;25.78;100930.03;5004910;28;20186;-73
2023/06/24 10:17:17;;;;;;;6.55;4.10;;;;;;;35.89;24.92;100926.50;4989905;28;20203;-72
2023/06/24 10:19:44;;;;;;;3.85;3.55;;;;;;;37.72;22.98;100931.34;5006365;28;20183;-72
2023/06/24 10:22:11;;;;;;;4.47;4.07;;;;;;;36.28;23.67;100933.00;4985839;28;20227;-73
2023/06/24 10:24:39;;;;;;;7.47;4.07;;;;;;;37.28;23.63;100929.31;5001558;28;20179;-74
2023/06/24 10:27:07;;;;;;;3.38;3.10;;;;;;;38.56;23.01;100921.50;5006227;28;20233;-73
2023/06/24 10:29:39;;;;;;;4.38;3.60;;;;;;;39.46;20.98;100918.38;4997005;28;20304;-72
2023/06/24 10:32:06;;;;;;;4.75;3.45;;;;;;;39.63;21.71;100912.84;4997686;28;20239;-74
2023/06/24 10:34:40;;;;;;;4.13;2.78;;;;;;;41.59;20.57;100928.78;4995933;28;20278;-73
2023/06/24 10:37:19;;;;;;;4.75;3.70;;;;;;;41.24;19.20;100933.13;5000067;28;20631;-74
2023/06/24 10:39:46;;;;;;;5.80;3.30;;;;;;;40.96;19.34;100927.13;5004071;28;20187;-70
2023/06/24 10:42:28;;;;;;;3.97;3.25;;;;;;;39.70;21.52;100918.00;4995330;28;20230;-70
2023/06/24 10:44:58;;;;;;;4.25;3.65;;;;;;;39.10;22.63;100909.16;4994033;28;20206;-70
2023/06/24 10:47:27;;;;;;;3.30;3.00;;;;;;;37.16;24.96;100894.50;5002577;28;20191;-71
2023/06/24 10:49:52;;;;;;;4.00;3.60;;;;;;;35.69;25.45;100893.66;5001201;28;20179;-71
2023/06/24 10:52:22;;;;;;;3.80;3.35;;;;;;;32.98;28.52;100894.28;4998706;28;20791;-70
2023/06/24 10:54:48;;;;;;;6.35;3.95;;;;;;;31.65;30.84;100885.59;5006470;28;20816;-72
2023/06/24 10:57:14;;;;;;;5.65;4.20;;;;;;;29.75;35.01;100878.78;5013518;28;20293;-70
2023/06/24 10:59:42;;;;;;;5.35;4.60;;;;;;;29.10;38.00;100868.16;5012847;28;20269;-70
2023/06/24 11:02:09;;;;;;;5.13;4.50;;;;;;;29.19;37.90;100867.03;4989980;28;20730;-70
2023/06/24 11:04:49;;;;;;;6.00;4.60;;;;;;;28.76;37.97;100869.59;5011516;28;20189;-70
2023/06/24 11:07:17;;;;;;;6.50;3.92;;;;;;;28.96;38.60;100862.72;4993689;28;20205;-69
2023/06/24 11:09:48;;;;;;;4.63;4.18;;;;;;;29.06;38.28;100865.06;4994104;28;20270;-70
2023/06/24 11:12:13;;;;;;;6.05;4.00;;;;;;;29.05;40.14;100857.28;4999133;28;20233;-70
2023/06/24 11:14:39;;;;;;;5.38;4.07;;;;;;;29.23;37.19;100854.22;4993357;28;20179;-70
2023/06/24 11:17:04;;;;;;;3.83;3.53;;;;;;;29.56;40.68;100849.25;4998976;28;20231;-70
2023/06/24 11:19:31;;;;;;;4.35;3.28;;;;;;;30.14;39.66;100850.91;4995575;28;20218;-71
2023/06/24 11:22:02;;;;;;;4.18;3.80;;;;;;;30.39;35.22;100847.78;5017712;28;20699;-71
2023/06/24 11:24:28;;;;;;;4.85;3.47;;;;;;;31.02;35.54;100847.66;5010885;28;20187;-71
2023/06/24 11:26:54;;;;;;;6.75;4.35;;;;;;;30.88;35.31;100838.81;5012993;28;20223;-70
2023/06/24 11:29:19;;;;;;;4.70;4.20;;;;;;;30.91;34.27;100843.72;5012115;28;20550;-70
2023/06/24 11:31:45;;;;;;;5.15;4.28;;;;;;;31.10;33.76;100832.53;4981066;28;20326;-70